sensor_id;sensor_type;location;lat;lon;timestamp;temperature;humidity
18797;DHT22;9526;52.612;13.300;2023-12-22T00:01:58;5.30;99.90
18797;DHT22;9526;52.612;13.300;2023-12-22T00:04:23;5.30;99.90
18797;DHT22;9526;52.612;13.300;2023-12-22T00:06:47;5.20;99.90
18797;DHT22;9526;52.612;13.300;2023-12-22T00:09:10;5.10;99.90
18797;DHT22;9526;52.612;13.300;2023-12-22T00:11:34;5.10;99.90
18797;DHT22;9526;52.612;13.300;2023-12-22T00:13:58;5.10;99.90
18797;DHT22;9526;52.612;13.300;2023-12-22T00:16:22;5.10;99.90
18797;DHT22;9526;52.612;13.300;2023-12-22T00:18:45;5.10;99.90
18797;DHT22;9526;52.612;13.300;2023-12-22T00:21:11;5.00;99.90
18797;DHT22;9526;52.612;13.300;2023-12-22T00:23:34;5.00;99.90
18797;DHT22;9526;52.612;13.300;2023-12-22T00:26:00;5.00;99.90
18797;DHT22;9526;52.612;13.300;2023-12-22T00:28:23;5.00;99.90
18797;DHT22;9526;52.612;13.300;2023-12-22T00:30:47;5.00;99.90
18797;DHT22;9526;52.612;13.300;2023-12-22T00:33:10;5.00;99.90
18797;DHT22;9526;52.612;13.300;2023-12-22T00:35:34;5.00;99.90
18797;DHT22;9526;52.612;13.300;2023-12-22T00:38:00;5.00;99.90
18797;DHT22;9526;52.612;13.300;2023-12-22T00:40:23;5.00;99.90
18797;DHT22;9526;52.612;13.300;2023-12-22T00:42:47;5.10;99.90
18797;DHT22;9526;52.612;13.300;2023-12-22T00:45:11;5.10;99.90
18797;DHT22;9526;52.612;13.300;2023-12-22T00:47:34;5.10;99.90
18797;DHT22;9526;52.612;13.300;2023-12-22T00:49:58;5.10;99.90
18797;DHT22;9526;52.612;13.300;2023-12-22T00:52:22;5.10;99.90
18797;DHT22;9526;52.612;13.300;2023-12-22T00:54:47;5.10;99.90
18797;DHT22;9526;52.612;13.300;2023-12-22T00:57:11;5.20;99.90
18797;DHT22;9526;52.612;13.300;2023-12-22T00:59:35;5.20;99.90
18797;DHT22;9526;52.612;13.300;2023-12-22T01:01:58;5.10;99.90
18797;DHT22;9526;52.612;13.300;2023-12-22T01:04:22;5.10;99.90
18797;DHT22;9526;52.612;13.300;2023-12-22T01:06:46;5.10;99.90
18797;DHT22;9526;52.612;13.300;2023-12-22T01:09:10;5.10;99.90
18797;DHT22;9526;52.612;13.300;2023-12-22T01:11:35;5.10;99.90
18797;DHT22;9526;52.612;13.300;2023-12-22T01:13:59;5.10;99.90
18797;DHT22;9526;52.612;13.300;2023-12-22T01:16:22;5.10;99.90
18797;DHT22;9526;52.612;13.300;2023-12-22T01:18:46;5.10;99.90
18797;DHT22;9526;52.612;13.300;2023-12-22T01:21:10;5.00;99.90
18797;DHT22;9526;52.612;13.300;2023-12-22T01:23:34;5.10;99.90
18797;DHT22;9526;52.612;13.300;2023-12-22T01:25:57;5.10;99.90
18797;DHT22;9526;52.612;13.300;2023-12-22T01:28:22;5.10;99.90
18797;DHT22;9526;52.612;13.300;2023-12-22T01:30:46;5.10;99.90
18797;DHT22;9526;52.612;13.300;2023-12-22T01:33:10;5.10;99.90
18797;DHT22;9526;52.612;13.300;2023-12-22T01:35:34;5.10;99.90
18797;DHT22;9526;52.612;13.300;2023-12-22T01:37:57;5.10;99.90
18797;DHT22;9526;52.612;13.300;2023-12-22T01:40:21;5.10;99.90
18797;DHT22;9526;52.612;13.300;2023-12-22T01:42:45;5.00;99.90
18797;DHT22;9526;52.612;13.300;2023-12-22T01:45:11;5.00;99.90
18797;DHT22;9526;52.612;13.300;2023-12-22T01:47:35;4.90;99.90
18797;DHT22;9526;52.612;13.300;2023-12-22T01:49:58;5.00;99.90
18797;DHT22;9526;52.612;13.300;2023-12-22T01:52:23;4.90;99.90
18797;DHT22;9526;52.612;13.300;2023-12-22T01:54:47;4.90;99.90
18797;DHT22;9526;52.612;13.300;2023-12-22T01:57:14;4.90;99.90
18797;DHT22;9526;52.612;13.300;2023-12-22T01:59:39;4.90;99.90
18797;DHT22;9526;52.612;13.300;2023-12-22T02:02:05;4.90;99.90
18797;DHT22;9526;52.612;13.300;2023-12-22T02:04:30;4.80;99.90
18797;DHT22;9526;52.612;13.300;2023-12-22T02:06:54;4.80;99.90
18797;DHT22;9526;52.612;13.300;2023-12-22T02:09:18;4.80;99.90
18797;DHT22;9526;52.612;13.300;2023-12-22T02:11:42;4.80;99.90
18797;DHT22;9526;52.612;13.300;2023-12-22T02:14:06;4.70;99.90
18797;DHT22;9526;52.612;13.300;2023-12-22T02:16:37;4.70;99.90
18797;DHT22;9526;52.612;13.300;2023-12-22T02:19:14;4.70;99.90
18797;DHT22;9526;52.612;13.300;2023-12-22T02:22:02;4.70;99.90
18797;DHT22;9526;52.612;13.300;2023-12-22T02:24:32;4.60;99.90
18797;DHT22;9526;52.612;13.300;2023-12-22T02:27:00;4.60;99.90
18797;DHT22;9526;52.612;13.300;2023-12-22T02:29:29;4.60;99.90
18797;DHT22;9526;52.612;13.300;2023-12-22T02:31:54;4.60;99.90
18797;DHT22;9526;52.612;13.300;2023-12-22T02:34:19;4.50;99.90
18797;DHT22;9526;52.612;13.300;2023-12-22T02:36:45;4.50;99.90
18797;DHT22;9526;52.612;13.300;2023-12-22T02:39:10;4.50;99.90
18797;DHT22;9526;52.612;13.300;2023-12-22T02:41:36;4.50;99.90
18797;DHT22;9526;52.612;13.300;2023-12-22T02:44:00;4.50;99.90
18797;DHT22;9526;52.612;13.300;2023-12-22T02:46:24;4.50;99.90
18797;DHT22;9526;52.612;13.300;2023-12-22T02:48:47;4.50;99.90
18797;DHT22;9526;52.612;13.300;2023-12-22T02:51:11;4.50;99.90
18797;DHT22;9526;52.612;13.300;2023-12-22T02:53:35;4.50;99.90
18797;DHT22;9526;52.612;13.300;2023-12-22T02:55:58;4.50;99.90
18797;DHT22;9526;52.612;13.300;2023-12-22T02:58:23;4.50;99.90
18797;DHT22;9526;52.612;13.300;2023-12-22T03:00:47;4.40;99.90
18797;DHT22;9526;52.612;13.300;2023-12-22T03:03:11;4.40;99.90
18797;DHT22;9526;52.612;13.300;2023-12-22T03:05:35;4.40;99.90
18797;DHT22;9526;52.612;13.300;2023-12-22T03:07:59;4.40;99.90
18797;DHT22;9526;52.612;13.300;2023-12-22T03:10:22;4.40;99.90
18797;DHT22;9526;52.612;13.300;2023-12-22T03:12:46;4.40;99.90
18797;DHT22;9526;52.612;13.300;2023-12-22T03:15:11;4.40;99.90
18797;DHT22;9526;52.612;13.300;2023-12-22T03:17:35;4.40;99.90
18797;DHT22;9526;52.612;13.300;2023-12-22T03:20:00;4.40;99.90
18797;DHT22;9526;52.612;13.300;2023-12-22T03:22:24;4.40;99.90
18797;DHT22;9526;52.612;13.300;2023-12-22T03:24:48;4.30;99.90
18797;DHT22;9526;52.612;13.300;2023-12-22T03:27:11;4.40;99.90
18797;DHT22;9526;52.612;13.300;2023-12-22T03:29:38;4.30;99.90
18797;DHT22;9526;52.612;13.300;2023-12-22T03:32:04;4.40;99.90
18797;DHT22;9526;52.612;13.300;2023-12-22T03:34:28;4.30;99.90
18797;DHT22;9526;52.612;13.300;2023-12-22T03:36:51;4.30;99.90
18797;DHT22;9526;52.612;13.300;2023-12-22T03:39:15;4.30;99.90
18797;DHT22;9526;52.612;13.300;2023-12-22T03:41:39;4.30;99.90
18797;DHT22;9526;52.612;13.300;2023-12-22T03:44:02;4.30;99.90
18797;DHT22;9526;52.612;13.300;2023-12-22T03:46:26;4.30;99.90
18797;DHT22;9526;52.612;13.300;2023-12-22T03:48:52;4.30;99.90
18797;DHT22;9526;52.612;13.300;2023-12-22T03:51:16;4.30;99.90
18797;DHT22;9526;52.612;13.300;2023-12-22T03:53:40;4.30;99.90
18797;DHT22;9526;52.612;13.300;2023-12-22T03:56:04;4.30;99.90
18797;DHT22;9526;52.612;13.300;2023-12-22T03:58:28;4.30;99.90
18797;DHT22;9526;52.612;13.300;2023-12-22T04:00:52;4.30;99.90
18797;DHT22;9526;52.612;13.300;2023-12-22T04:03:16;4.30;99.90
18797;DHT22;9526;52.612;13.300;2023-12-22T04:05:41;4.40;99.90
18797;DHT22;9526;52.612;13.300;2023-12-22T04:08:05;4.40;99.90
18797;DHT22;9526;52.612;13.300;2023-12-22T04:10:29;4.40;99.90
18797;DHT22;9526;52.612;13.300;2023-12-22T04:12:53;4.40;99.90
18797;DHT22;9526;52.612;13.300;2023-12-22T04:15:17;4.40;99.90
18797;DHT22;9526;52.612;13.300;2023-12-22T04:17:40;4.40;99.90
18797;DHT22;9526;52.612;13.300;2023-12-22T04:20:05;4.40;99.90
18797;DHT22;9526;52.612;13.300;2023-12-22T04:22:31;4.40;99.90
18797;DHT22;9526;52.612;13.300;2023-12-22T04:24:55;4.40;99.90
18797;DHT22;9526;52.612;13.300;2023-12-22T04:27:18;4.40;99.90
18797;DHT22;9526;52.612;13.300;2023-12-22T04:29:42;4.30;99.90
18797;DHT22;9526;52.612;13.300;2023-12-22T04:32:06;4.30;99.90
18797;DHT22;9526;52.612;13.300;2023-12-22T04:34:29;4.30;99.90
18797;DHT22;9526;52.612;13.300;2023-12-22T04:36:53;4.20;99.90
18797;DHT22;9526;52.612;13.300;2023-12-22T04:39:18;4.30;99.90
18797;DHT22;9526;52.612;13.300;2023-12-22T04:41:45;4.20;99.90
18797;DHT22;9526;52.612;13.300;2023-12-22T04:44:08;4.20;99.90
18797;DHT22;9526;52.612;13.300;2023-12-22T04:46:32;4.30;99.90
18797;DHT22;9526;52.612;13.300;2023-12-22T04:48:56;4.30;99.90
18797;DHT22;9526;52.612;13.300;2023-12-22T04:51:19;4.30;99.90
18797;DHT22;9526;52.612;13.300;2023-12-22T04:53:43;4.20;99.90
18797;DHT22;9526;52.612;13.300;2023-12-22T04:56:08;4.20;99.90
18797;DHT22;9526;52.612;13.300;2023-12-22T04:58:32;4.10;99.90
18797;DHT22;9526;52.612;13.300;2023-12-22T05:00:55;4.10;99.90
18797;DHT22;9526;52.612;13.300;2023-12-22T05:03:19;4.10;99.90
18797;DHT22;9526;52.612;13.300;2023-12-22T05:05:43;4.00;99.90
18797;DHT22;9526;52.612;13.300;2023-12-22T05:08:07;4.00;99.90
18797;DHT22;9526;52.612;13.300;2023-12-22T05:10:30;3.90;99.90
18797;DHT22;9526;52.612;13.300;2023-12-22T05:12:55;4.00;99.90
18797;DHT22;9526;52.612;13.300;2023-12-22T05:15:19;4.00;99.90
18797;DHT22;9526;52.612;13.300;2023-12-22T05:17:43;4.00;99.90
18797;DHT22;9526;52.612;13.300;2023-12-22T05:20:07;4.00;99.90
18797;DHT22;9526;52.612;13.300;2023-12-22T05:22:31;3.90;99.90
18797;DHT22;9526;52.612;13.300;2023-12-22T05:24:58;3.80;99.90
18797;DHT22;9526;52.612;13.300;2023-12-22T05:27:22;3.80;99.90
18797;DHT22;9526;52.612;13.300;2023-12-22T05:29:47;3.80;99.90
18797;DHT22;9526;52.612;13.300;2023-12-22T05:32:10;3.70;99.90
18797;DHT22;9526;52.612;13.300;2023-12-22T05:34:34;3.70;99.90
18797;DHT22;9526;52.612;13.300;2023-12-22T05:36:58;3.70;99.90
18797;DHT22;9526;52.612;13.300;2023-12-22T05:39:22;3.70;99.90
18797;DHT22;9526;52.612;13.300;2023-12-22T05:41:46;3.70;99.90
18797;DHT22;9526;52.612;13.300;2023-12-22T05:44:09;3.70;99.90
18797;DHT22;9526;52.612;13.300;2023-12-22T05:46:37;3.80;99.90
18797;DHT22;9526;52.612;13.300;2023-12-22T05:49:01;3.70;99.90
18797;DHT22;9526;52.612;13.300;2023-12-22T05:51:25;3.70;99.90
18797;DHT22;9526;52.612;13.300;2023-12-22T05:53:48;3.70;99.90
18797;DHT22;9526;52.612;13.300;2023-12-22T05:56:18;3.60;99.90
18797;DHT22;9526;52.612;13.300;2023-12-22T05:58:42;3.70;99.90
18797;DHT22;9526;52.612;13.300;2023-12-22T06:01:06;3.70;99.90
18797;DHT22;9526;52.612;13.300;2023-12-22T06:03:32;3.70;99.90
18797;DHT22;9526;52.612;13.300;2023-12-22T06:05:55;3.80;99.90
18797;DHT22;9526;52.612;13.300;2023-12-22T06:08:19;3.70;99.90
18797;DHT22;9526;52.612;13.300;2023-12-22T06:10:43;3.70;99.90
18797;DHT22;9526;52.612;13.300;2023-12-22T06:13:07;3.80;99.90
18797;DHT22;9526;52.612;13.300;2023-12-22T06:15:30;3.80;99.90
18797;DHT22;9526;52.612;13.300;2023-12-22T06:17:54;3.80;99.90
18797;DHT22;9526;52.612;13.300;2023-12-22T06:20:19;3.70;99.90
18797;DHT22;9526;52.612;13.300;2023-12-22T06:22:43;3.70;99.90
18797;DHT22;9526;52.612;13.300;2023-12-22T06:25:07;3.70;99.90
18797;DHT22;9526;52.612;13.300;2023-12-22T06:27:31;3.70;99.90
18797;DHT22;9526;52.612;13.300;2023-12-22T06:29:55;3.70;99.90
18797;DHT22;9526;52.612;13.300;2023-12-22T06:32:19;3.70;99.90
18797;DHT22;9526;52.612;13.300;2023-12-22T06:34:43;3.70;99.90
18797;DHT22;9526;52.612;13.300;2023-12-22T06:37:08;3.70;99.90
18797;DHT22;9526;52.612;13.300;2023-12-22T06:39:33;3.70;99.90
18797;DHT22;9526;52.612;13.300;2023-12-22T06:41:56;3.70;99.90
18797;DHT22;9526;52.612;13.300;2023-12-22T06:44:20;3.80;99.90
18797;DHT22;9526;52.612;13.300;2023-12-22T06:46:44;3.70;99.90
18797;DHT22;9526;52.612;13.300;2023-12-22T06:49:08;3.70;99.90
18797;DHT22;9526;52.612;13.300;2023-12-22T06:51:32;3.70;99.90
18797;DHT22;9526;52.612;13.300;2023-12-22T06:53:58;3.70;99.90
18797;DHT22;9526;52.612;13.300;2023-12-22T06:56:25;3.70;99.90
18797;DHT22;9526;52.612;13.300;2023-12-22T06:58:51;3.70;99.90
18797;DHT22;9526;52.612;13.300;2023-12-22T07:01:19;3.60;99.90
18797;DHT22;9526;52.612;13.300;2023-12-22T07:03:43;3.50;99.90
18797;DHT22;9526;52.612;13.300;2023-12-22T07:06:07;3.40;99.90
18797;DHT22;9526;52.612;13.300;2023-12-22T07:08:31;3.30;99.90
18797;DHT22;9526;52.612;13.300;2023-12-22T07:10:56;3.30;99.90
18797;DHT22;9526;52.612;13.300;2023-12-22T07:13:20;3.30;99.90
18797;DHT22;9526;52.612;13.300;2023-12-22T07:15:44;3.30;99.90
18797;DHT22;9526;52.612;13.300;2023-12-22T07:18:07;3.20;99.90
18797;DHT22;9526;52.612;13.300;2023-12-22T07:20:31;3.20;99.90
18797;DHT22;9526;52.612;13.300;2023-12-22T07:22:55;3.20;99.90
18797;DHT22;9526;52.612;13.300;2023-12-22T07:25:19;3.20;99.90
18797;DHT22;9526;52.612;13.300;2023-12-22T07:27:44;3.20;99.90
18797;DHT22;9526;52.612;13.300;2023-12-22T07:30:10;3.20;99.90
18797;DHT22;9526;52.612;13.300;2023-12-22T07:32:37;3.30;99.90
18797;DHT22;9526;52.612;13.300;2023-12-22T07:35:02;3.30;99.90
18797;DHT22;9526;52.612;13.300;2023-12-22T07:37:26;3.30;99.90
18797;DHT22;9526;52.612;13.300;2023-12-22T07:39:50;3.40;99.90
18797;DHT22;9526;52.612;13.300;2023-12-22T07:42:14;3.40;99.90
18797;DHT22;9526;52.612;13.300;2023-12-22T07:44:40;3.50;99.90
18797;DHT22;9526;52.612;13.300;2023-12-22T07:47:03;3.50;99.90
18797;DHT22;9526;52.612;13.300;2023-12-22T07:49:29;3.50;99.90
18797;DHT22;9526;52.612;13.300;2023-12-22T07:51:54;3.60;99.90
18797;DHT22;9526;52.612;13.300;2023-12-22T07:54:17;3.60;99.90
18797;DHT22;9526;52.612;13.300;2023-12-22T07:56:41;3.60;99.90
18797;DHT22;9526;52.612;13.300;2023-12-22T07:59:05;3.60;99.90
18797;DHT22;9526;52.612;13.300;2023-12-22T08:01:49;3.60;99.90
18797;DHT22;9526;52.612;13.300;2023-12-22T08:04:12;3.60;99.90
18797;DHT22;9526;52.612;13.300;2023-12-22T08:06:36;3.70;99.90
18797;DHT22;9526;52.612;13.300;2023-12-22T08:09:00;3.70;99.90
18797;DHT22;9526;52.612;13.300;2023-12-22T08:11:24;3.70;99.90
18797;DHT22;9526;52.612;13.300;2023-12-22T08:13:48;3.70;99.90
18797;DHT22;9526;52.612;13.300;2023-12-22T08:16:12;3.70;99.90
18797;DHT22;9526;52.612;13.300;2023-12-22T08:18:37;3.70;99.90
18797;DHT22;9526;52.612;13.300;2023-12-22T08:21:00;3.70;99.90
18797;DHT22;9526;52.612;13.300;2023-12-22T08:23:35;3.70;99.90
18797;DHT22;9526;52.612;13.300;2023-12-22T08:26:07;3.70;99.90
18797;DHT22;9526;52.612;13.300;2023-12-22T08:28:31;3.60;99.90
18797;DHT22;9526;52.612;13.300;2023-12-22T08:30:54;3.70;99.90
18797;DHT22;9526;52.612;13.300;2023-12-22T08:33:18;3.70;99.90
18797;DHT22;9526;52.612;13.300;2023-12-22T08:35:43;3.70;99.90
18797;DHT22;9526;52.612;13.300;2023-12-22T08:38:07;3.60;99.90
18797;DHT22;9526;52.612;13.300;2023-12-22T08:40:31;3.60;99.90
18797;DHT22;9526;52.612;13.300;2023-12-22T08:42:56;3.60;99.90
18797;DHT22;9526;52.612;13.300;2023-12-22T08:45:22;3.60;99.90
18797;DHT22;9526;52.612;13.300;2023-12-22T08:47:45;3.70;99.90
18797;DHT22;9526;52.612;13.300;2023-12-22T08:50:09;3.60;99.90
18797;DHT22;9526;52.612;13.300;2023-12-22T08:52:36;3.70;99.90
18797;DHT22;9526;52.612;13.300;2023-12-22T08:55:00;3.60;99.90
18797;DHT22;9526;52.612;13.300;2023-12-22T08:57:23;3.60;99.90
18797;DHT22;9526;52.612;13.300;2023-12-22T08:59:48;3.60;99.90
18797;DHT22;9526;52.612;13.300;2023-12-22T09:02:12;3.70;99.90
18797;DHT22;9526;52.612;13.300;2023-12-22T09:04:35;3.70;99.90
18797;DHT22;9526;52.612;13.300;2023-12-22T09:07:00;3.70;99.90
18797;DHT22;9526;52.612;13.300;2023-12-22T09:09:25;3.70;99.90
18797;DHT22;9526;52.612;13.300;2023-12-22T09:11:49;3.80;99.90
18797;DHT22;9526;52.612;13.300;2023-12-22T09:14:13;3.90;99.90
18797;DHT22;9526;52.612;13.300;2023-12-22T09:16:37;3.90;99.90
18797;DHT22;9526;52.612;13.300;2023-12-22T09:19:01;4.00;99.90
18797;DHT22;9526;52.612;13.300;2023-12-22T09:21:25;4.10;99.90
18797;DHT22;9526;52.612;13.300;2023-12-22T09:23:48;4.10;99.90
18797;DHT22;9526;52.612;13.300;2023-12-22T09:26:14;4.10;99.90
18797;DHT22;9526;52.612;13.300;2023-12-22T09:28:37;4.10;99.90
18797;DHT22;9526;52.612;13.300;2023-12-22T09:31:01;4.10;99.90
18797;DHT22;9526;52.612;13.300;2023-12-22T09:33:27;4.20;99.90
18797;DHT22;9526;52.612;13.300;2023-12-22T09:35:51;4.20;99.90
18797;DHT22;9526;52.612;13.300;2023-12-22T09:38:15;4.20;99.90
18797;DHT22;9526;52.612;13.300;2023-12-22T09:40:39;4.30;99.90
18797;DHT22;9526;52.612;13.300;2023-12-22T09:43:06;4.40;99.90
18797;DHT22;9526;52.612;13.300;2023-12-22T09:45:30;4.40;99.90
18797;DHT22;9526;52.612;13.300;2023-12-22T09:47:56;4.50;99.90
18797;DHT22;9526;52.612;13.300;2023-12-22T09:50:21;4.50;99.90
18797;DHT22;9526;52.612;13.300;2023-12-22T09:52:45;4.50;99.90
18797;DHT22;9526;52.612;13.300;2023-12-22T09:55:09;4.50;99.90
18797;DHT22;9526;52.612;13.300;2023-12-22T09:57:35;4.60;99.90
18797;DHT22;9526;52.612;13.300;2023-12-22T10:00:01;4.60;99.90
18797;DHT22;9526;52.612;13.300;2023-12-22T10:02:29;4.50;99.90
18797;DHT22;9526;52.612;13.300;2023-12-22T10:04:54;4.60;99.90
18797;DHT22;9526;52.612;13.300;2023-12-22T10:07:18;4.60;99.90
18797;DHT22;9526;52.612;13.300;2023-12-22T10:09:42;4.70;99.90
18797;DHT22;9526;52.612;13.300;2023-12-22T10:12:09;4.60;99.90
18797;DHT22;9526;52.612;13.300;2023-12-22T10:14:35;4.60;99.90
18797;DHT22;9526;52.612;13.300;2023-12-22T10:17:03;4.60;99.90
18797;DHT22;9526;52.612;13.300;2023-12-22T10:19:27;4.60;99.90
18797;DHT22;9526;52.612;13.300;2023-12-22T10:21:51;4.70;99.90
18797;DHT22;9526;52.612;13.300;2023-12-22T10:24:37;4.70;99.90
18797;DHT22;9526;52.612;13.300;2023-12-22T10:27:01;4.70;99.90
18797;DHT22;9526;52.612;13.300;2023-12-22T10:29:25;4.70;99.90
18797;DHT22;9526;52.612;13.300;2023-12-22T10:31:50;4.70;99.90
18797;DHT22;9526;52.612;13.300;2023-12-22T10:34:15;4.70;99.90
18797;DHT22;9526;52.612;13.300;2023-12-22T10:36:38;4.80;99.90
18797;DHT22;9526;52.612;13.300;2023-12-22T10:39:02;4.80;99.90
18797;DHT22;9526;52.612;13.300;2023-12-22T10:41:26;4.90;99.90
18797;DHT22;9526;52.612;13.300;2023-12-22T10:43:51;4.90;99.90
18797;DHT22;9526;52.612;13.300;2023-12-22T10:46:15;4.90;99.90
18797;DHT22;9526;52.612;13.300;2023-12-22T10:48:40;4.90;99.90
18797;DHT22;9526;52.612;13.300;2023-12-22T10:51:09;5.00;99.90
18797;DHT22;9526;52.612;13.300;2023-12-22T10:53:33;5.00;99.90
18797;DHT22;9526;52.612;13.300;2023-12-22T10:55:56;5.00;99.90
18797;DHT22;9526;52.612;13.300;2023-12-22T10:58:21;5.00;99.90
18797;DHT22;9526;52.612;13.300;2023-12-22T11:00:45;5.00;99.90
18797;DHT22;9526;52.612;13.300;2023-12-22T11:03:13;5.00;99.90
18797;DHT22;9526;52.612;13.300;2023-12-22T11:05:44;5.00;99.90
18797;DHT22;9526;52.612;13.300;2023-12-22T11:08:11;5.00;99.90
18797;DHT22;9526;52.612;13.300;2023-12-22T11:10:36;5.00;99.90
18797;DHT22;9526;52.612;13.300;2023-12-22T11:13:04;5.00;99.90
18797;DHT22;9526;52.612;13.300;2023-12-22T11:15:29;4.90;99.90
18797;DHT22;9526;52.612;13.300;2023-12-22T11:17:56;5.00;99.90
18797;DHT22;9526;52.612;13.300;2023-12-22T11:20:23;4.90;99.90
18797;DHT22;9526;52.612;13.300;2023-12-22T11:22:48;4.90;99.90
18797;DHT22;9526;52.612;13.300;2023-12-22T11:25:15;4.90;99.90
18797;DHT22;9526;52.612;13.300;2023-12-22T11:27:39;4.90;99.90
18797;DHT22;9526;52.612;13.300;2023-12-22T11:30:05;5.00;99.90
18797;DHT22;9526;52.612;13.300;2023-12-22T11:32:32;5.00;99.90
18797;DHT22;9526;52.612;13.300;2023-12-22T11:34:57;5.00;99.90
18797;DHT22;9526;52.612;13.300;2023-12-22T11:37:23;5.00;99.90
18797;DHT22;9526;52.612;13.300;2023-12-22T11:39:46;5.00;99.90
18797;DHT22;9526;52.612;13.300;2023-12-22T11:42:16;5.00;99.90
18797;DHT22;9526;52.612;13.300;2023-12-22T11:44:41;5.00;99.90
18797;DHT22;9526;52.612;13.300;2023-12-22T11:47:06;5.10;99.90
18797;DHT22;9526;52.612;13.300;2023-12-22T11:49:34;5.10;99.90
18797;DHT22;9526;52.612;13.300;2023-12-22T11:51:59;5.10;99.90
18797;DHT22;9526;52.612;13.300;2023-12-22T11:54:48;5.10;99.90
18797;DHT22;9526;52.612;13.300;2023-12-22T11:57:37;5.10;99.90
18797;DHT22;9526;52.612;13.300;2023-12-22T12:00:04;5.10;99.90
18797;DHT22;9526;52.612;13.300;2023-12-22T12:02:33;5.20;99.90
18797;DHT22;9526;52.612;13.300;2023-12-22T12:04:58;5.20;99.90
18797;DHT22;9526;52.612;13.300;2023-12-22T12:07:39;5.20;99.90
18797;DHT22;9526;52.612;13.300;2023-12-22T12:10:07;5.20;99.90
18797;DHT22;9526;52.612;13.300;2023-12-22T12:12:33;5.20;99.90
18797;DHT22;9526;52.612;13.300;2023-12-22T12:14:58;5.20;99.90
18797;DHT22;9526;52.612;13.300;2023-12-22T12:17:33;5.20;99.90
18797;DHT22;9526;52.612;13.300;2023-12-22T12:19:58;5.20;99.90
18797;DHT22;9526;52.612;13.300;2023-12-22T12:22:22;5.20;99.90
18797;DHT22;9526;52.612;13.300;2023-12-22T12:24:47;5.20;99.90
18797;DHT22;9526;52.612;13.300;2023-12-22T12:27:11;5.20;99.90
18797;DHT22;9526;52.612;13.300;2023-12-22T12:29:42;5.20;99.90
18797;DHT22;9526;52.612;13.300;2023-12-22T12:32:06;5.20;99.90
18797;DHT22;9526;52.612;13.300;2023-12-22T12:34:29;5.20;99.90
18797;DHT22;9526;52.612;13.300;2023-12-22T12:36:54;5.20;99.90
18797;DHT22;9526;52.612;13.300;2023-12-22T12:39:21;5.20;99.90
18797;DHT22;9526;52.612;13.300;2023-12-22T12:41:53;5.20;99.90
18797;DHT22;9526;52.612;13.300;2023-12-22T12:44:18;5.30;99.90
18797;DHT22;9526;52.612;13.300;2023-12-22T12:46:44;5.30;99.90
18797;DHT22;9526;52.612;13.300;2023-12-22T12:49:10;5.30;99.90
18797;DHT22;9526;52.612;13.300;2023-12-22T12:51:38;5.30;99.90
18797;DHT22;9526;52.612;13.300;2023-12-22T12:54:02;5.30;99.90
18797;DHT22;9526;52.612;13.300;2023-12-22T12:56:25;5.20;99.90
18797;DHT22;9526;52.612;13.300;2023-12-22T12:58:48;5.20;99.90
18797;DHT22;9526;52.612;13.300;2023-12-22T13:01:12;5.20;99.90
18797;DHT22;9526;52.612;13.300;2023-12-22T13:03:54;5.30;99.90
18797;DHT22;9526;52.612;13.300;2023-12-22T13:06:19;5.30;99.90
18797;DHT22;9526;52.612;13.300;2023-12-22T13:08:47;5.30;99.90
18797;DHT22;9526;52.612;13.300;2023-12-22T13:11:12;5.20;99.90
18797;DHT22;9526;52.612;13.300;2023-12-22T13:13:41;5.20;99.90
18797;DHT22;9526;52.612;13.300;2023-12-22T13:16:05;5.20;99.90
18797;DHT22;9526;52.612;13.300;2023-12-22T13:18:29;5.20;99.90
18797;DHT22;9526;52.612;13.300;2023-12-22T13:20:54;5.20;99.90
18797;DHT22;9526;52.612;13.300;2023-12-22T13:23:18;5.20;99.90
18797;DHT22;9526;52.612;13.300;2023-12-22T13:25:42;5.20;99.90
18797;DHT22;9526;52.612;13.300;2023-12-22T13:28:06;5.20;99.90
18797;DHT22;9526;52.612;13.300;2023-12-22T13:30:33;5.20;99.90
18797;DHT22;9526;52.612;13.300;2023-12-22T13:32:57;5.20;99.90
18797;DHT22;9526;52.612;13.300;2023-12-22T13:35:23;5.20;99.90
18797;DHT22;9526;52.612;13.300;2023-12-22T13:37:49;5.20;99.90
18797;DHT22;9526;52.612;13.300;2023-12-22T13:40:14;5.20;99.90
18797;DHT22;9526;52.612;13.300;2023-12-22T13:42:38;5.20;99.90
18797;DHT22;9526;52.612;13.300;2023-12-22T13:45:03;5.20;99.90
18797;DHT22;9526;52.612;13.300;2023-12-22T13:47:28;5.20;99.90
18797;DHT22;9526;52.612;13.300;2023-12-22T13:49:52;5.30;99.90
18797;DHT22;9526;52.612;13.300;2023-12-22T13:52:29;5.30;99.90
18797;DHT22;9526;52.612;13.300;2023-12-22T13:54:58;5.30;99.90
18797;DHT22;9526;52.612;13.300;2023-12-22T13:57:24;5.20;99.90
18797;DHT22;9526;52.612;13.300;2023-12-22T13:59:48;5.20;99.90
18797;DHT22;9526;52.612;13.300;2023-12-22T14:02:14;5.20;99.90
18797;DHT22;9526;52.612;13.300;2023-12-22T14:04:38;5.20;99.90
18797;DHT22;9526;52.612;13.300;2023-12-22T14:07:03;5.20;99.90
18797;DHT22;9526;52.612;13.300;2023-12-22T14:09:27;5.20;99.90
18797;DHT22;9526;52.612;13.300;2023-12-22T14:11:56;5.20;99.90
18797;DHT22;9526;52.612;13.300;2023-12-22T14:14:26;5.20;99.90
18797;DHT22;9526;52.612;13.300;2023-12-22T14:16:50;5.20;99.90
18797;DHT22;9526;52.612;13.300;2023-12-22T14:19:14;5.20;99.90
18797;DHT22;9526;52.612;13.300;2023-12-22T14:21:38;5.10;99.90
18797;DHT22;9526;52.612;13.300;2023-12-22T14:24:01;5.10;99.90
18797;DHT22;9526;52.612;13.300;2023-12-22T14:26:25;5.00;99.90
18797;DHT22;9526;52.612;13.300;2023-12-22T14:28:50;5.00;99.90
18797;DHT22;9526;52.612;13.300;2023-12-22T14:31:14;4.90;99.90
18797;DHT22;9526;52.612;13.300;2023-12-22T14:33:38;4.90;99.90
18797;DHT22;9526;52.612;13.300;2023-12-22T14:36:02;4.80;99.90
18797;DHT22;9526;52.612;13.300;2023-12-22T14:38:26;4.90;99.90
18797;DHT22;9526;52.612;13.300;2023-12-22T14:40:49;4.80;99.90
18797;DHT22;9526;52.612;13.300;2023-12-22T14:43:14;4.80;99.90
18797;DHT22;9526;52.612;13.300;2023-12-22T14:45:39;4.70;99.90
18797;DHT22;9526;52.612;13.300;2023-12-22T14:48:04;4.70;99.90
18797;DHT22;9526;52.612;13.300;2023-12-22T14:50:28;4.60;99.90
18797;DHT22;9526;52.612;13.300;2023-12-22T14:52:52;4.70;99.90
18797;DHT22;9526;52.612;13.300;2023-12-22T14:55:16;4.60;99.90
18797;DHT22;9526;52.612;13.300;2023-12-22T14:57:40;4.60;99.90
18797;DHT22;9526;52.612;13.300;2023-12-22T15:00:05;4.50;99.90
18797;DHT22;9526;52.612;13.300;2023-12-22T15:02:32;4.50;99.90
18797;DHT22;9526;52.612;13.300;2023-12-22T15:04:56;4.50;99.90
18797;DHT22;9526;52.612;13.300;2023-12-22T15:07:22;4.40;99.90
18797;DHT22;9526;52.612;13.300;2023-12-22T15:09:46;4.40;99.90
18797;DHT22;9526;52.612;13.300;2023-12-22T15:12:11;4.30;99.90
18797;DHT22;9526;52.612;13.300;2023-12-22T15:14:35;4.30;99.90
18797;DHT22;9526;52.612;13.300;2023-12-22T15:16:58;4.30;99.90
18797;DHT22;9526;52.612;13.300;2023-12-22T15:19:24;4.30;99.90
18797;DHT22;9526;52.612;13.300;2023-12-22T15:21:48;4.30;99.90
18797;DHT22;9526;52.612;13.300;2023-12-22T15:24:12;4.20;99.90
18797;DHT22;9526;52.612;13.300;2023-12-22T15:26:36;4.20;99.90
18797;DHT22;9526;52.612;13.300;2023-12-22T15:28:59;4.20;99.90
18797;DHT22;9526;52.612;13.300;2023-12-22T15:31:23;4.20;99.90